createdAt,value
2022-07-30T00:01:52.326Z,3.80
2022-07-30T00:04:19.016Z,3.45
2022-07-30T00:06:45.397Z,3.80
2022-07-30T00:09:11.999Z,4.18
2022-07-30T00:11:38.400Z,3.88
2022-07-30T00:14:05.043Z,3.55
2022-07-30T00:16:31.768Z,3.60
2022-07-30T00:18:58.199Z,3.95
2022-07-30T00:21:36.273Z,3.53
2022-07-30T00:24:05.323Z,3.70
2022-07-30T00:26:31.714Z,3.90
2022-07-30T00:28:58.030Z,3.95
2022-07-30T00:31:24.696Z,3.40
2022-07-30T00:33:51.101Z,3.70
2022-07-30T00:36:17.645Z,3.55
2022-07-30T00:38:44.114Z,3.60
2022-07-30T00:41:10.474Z,3.90
2022-07-30T00:43:36.958Z,4.10
2022-07-30T00:46:03.437Z,3.47
2022-07-30T00:48:29.820Z,3.85
2022-07-30T00:50:56.210Z,3.70
2022-07-30T00:53:23.752Z,4.05
2022-07-30T00:55:50.265Z,3.30
2022-07-30T00:58:19.924Z,3.72
2022-07-30T01:00:46.364Z,3.67
2022-07-30T01:03:12.822Z,3.60
2022-07-30T01:05:44.158Z,3.80
2022-07-30T01:08:10.650Z,3.55
2022-07-30T01:10:37.007Z,3.35
2022-07-30T01:13:03.449Z,3.60
2022-07-30T01:15:29.858Z,3.63
2022-07-30T01:17:56.220Z,4.07
2022-07-30T01:20:22.759Z,3.90
2022-07-30T01:22:49.122Z,3.55
2022-07-30T01:25:15.979Z,3.75
2022-07-30T01:27:42.362Z,3.67
2022-07-30T01:30:08.806Z,3.88
2022-07-30T01:32:35.291Z,3.55
2022-07-30T01:35:01.994Z,3.88
2022-07-30T01:37:28.377Z,3.53
2022-07-30T01:39:54.793Z,3.40
2022-07-30T01:42:21.439Z,3.10
2022-07-30T01:44:47.813Z,3.58
2022-07-30T01:47:14.218Z,3.50
2022-07-30T01:49:40.622Z,4.30
2022-07-30T01:52:07.258Z,3.63
2022-07-30T01:54:33.938Z,3.25
2022-07-30T01:57:00.505Z,3.65
2022-07-30T01:59:26.933Z,3.50
2022-07-30T02:01:53.510Z,3.55
2022-07-30T02:04:20.013Z,3.65
2022-07-30T02:06:50.331Z,3.30
2022-07-30T02:09:16.682Z,3.30
2022-07-30T02:11:42.975Z,3.53
2022-07-30T02:14:09.403Z,3.60
2022-07-30T02:16:35.882Z,3.85
2022-07-30T02:19:13.843Z,3.90
2022-07-30T02:21:40.550Z,3.55
2022-07-30T02:24:16.799Z,3.92
2022-07-30T02:26:43.197Z,3.63
2022-07-30T02:29:11.563Z,3.33
2022-07-30T02:31:38.133Z,3.75
2022-07-30T02:34:04.651Z,3.70
2022-07-30T02:36:31.010Z,3.47
2022-07-30T02:38:57.621Z,3.42
2022-07-30T02:41:33.840Z,3.45
2022-07-30T02:44:03.449Z,3.53
2022-07-30T02:46:30.014Z,3.45
2022-07-30T02:48:56.621Z,3.53
2022-07-30T02:51:23.177Z,3.58
2022-07-30T02:53:51.842Z,3.65
2022-07-30T02:56:18.424Z,3.40
2022-07-30T02:58:44.803Z,3.45
2022-07-30T03:01:11.522Z,3.28
2022-07-30T03:03:37.953Z,3.50
2022-07-30T03:06:04.262Z,3.47
2022-07-30T03:08:30.732Z,3.25
2022-07-30T03:10:57.253Z,3.10
2022-07-30T03:13:23.874Z,3.42
2022-07-30T03:15:56.763Z,3.65
2022-07-30T03:18:33.125Z,3.33
2022-07-30T03:20:59.695Z,3.20
2022-07-30T03:23:26.211Z,3.10
2022-07-30T03:25:56.597Z,3.45
2022-07-30T03:28:32.831Z,2.97
2022-07-30T03:30:59.240Z,3.25
2022-07-30T03:33:38.022Z,3.45
2022-07-30T03:36:04.926Z,3.50
2022-07-30T03:38:31.758Z,3.38
2022-07-30T03:40:58.129Z,3.53
2022-07-30T03:43:33.209Z,3.60
2022-07-30T03:46:00.429Z,3.45
2022-07-30T03:48:26.779Z,3.20
2022-07-30T03:51:00.326Z,3.25
2022-07-30T03:53:26.894Z,3.53
2022-07-30T03:55:53.316Z,3.33
2022-07-30T03:58:19.829Z,3.20
2022-07-30T04:00:46.213Z,3.10
2022-07-30T04:03:12.869Z,3.17
2022-07-30T04:05:41.715Z,3.83
2022-07-30T04:08:08.216Z,3.97
2022-07-30T04:10:35.225Z,3.40
2022-07-30T04:13:02.910Z,3.35
2022-07-30T04:16:37.623Z,3.20
2022-07-30T04:18:28.009Z,3.25
2022-07-30T04:20:54.577Z,3.85
2022-07-30T04:23:28.230Z,3.75
2022-07-30T04:26:04.444Z,3.40
2022-07-30T04:28:30.871Z,3.40
2022-07-30T04:30:57.473Z,3.58
2022-07-30T04:33:24.178Z,3.40
2022-07-30T04:35:52.338Z,3.90
2022-07-30T04:38:18.901Z,3.50
2022-07-30T04:40:45.511Z,3.40
2022-07-30T04:43:11.985Z,3.40
2022-07-30T04:45:38.411Z,3.40
2022-07-30T04:48:04.774Z,3.50
2022-07-30T04:50:31.452Z,3.58
2022-07-30T04:52:57.838Z,3.50
2022-07-30T04:55:24.255Z,3.60
2022-07-30T04:57:50.708Z,3.53
2022-07-30T05:00:17.066Z,3.88
2022-07-30T05:02:43.554Z,3.22
2022-07-30T05:05:10.088Z,3.15
2022-07-30T05:07:36.649Z,3.38
2022-07-30T05:10:03.278Z,3.28
2022-07-30T05:12:31.597Z,3.28
2022-07-30T05:15:02.749Z,3.05
2022-07-30T05:17:39.053Z,3.20
2022-07-30T05:20:11.035Z,3.50
2022-07-30T05:22:37.759Z,3.30
2022-07-30T05:25:16.141Z,3.60
2022-07-30T05:27:43.143Z,3.40
2022-07-30T05:30:09.871Z,3.17
2022-07-30T05:32:38.833Z,3.22
2022-07-30T05:35:05.354Z,3.45
2022-07-30T05:37:32.195Z,3.30
2022-07-30T05:40:02.529Z,3.20
2022-07-30T05:42:30.021Z,3.53
2022-07-30T05:44:56.555Z,3.50
2022-07-30T05:47:22.922Z,3.67
2022-07-30T05:49:49.385Z,3.38
2022-07-30T05:52:15.845Z,3.28
2022-07-30T05:54:42.242Z,3.35
2022-07-30T05:57:08.671Z,3.45
2022-07-30T05:59:35.074Z,3.50
2022-07-30T06:02:01.498Z,3.22
2022-07-30T06:04:28.032Z,3.50
2022-07-30T06:06:54.503Z,3.10
2022-07-30T06:09:26.426Z,3.10
2022-07-30T06:12:03.051Z,3.17
2022-07-30T06:14:29.507Z,3.03
2022-07-30T06:16:55.861Z,3.20
2022-07-30T06:19:22.321Z,3.30
2022-07-30T06:22:01.821Z,3.15
2022-07-30T06:24:33.078Z,3.10
2022-07-30T06:27:00.013Z,3.13
2022-07-30T06:29:26.627Z,3.03
2022-07-30T06:31:53.139Z,3.33
2022-07-30T06:34:29.380Z,3.47
2022-07-30T06:36:55.741Z,3.28
2022-07-30T06:39:56.995Z,3.45
2022-07-30T06:42:08.615Z,3.08
2022-07-30T06:44:35.199Z,3.33
2022-07-30T06:47:07.219Z,3.67
2022-07-30T06:49:34.581Z,3.33
2022-07-30T06:52:00.926Z,3.50
2022-07-30T06:54:27.301Z,3.15
2022-07-30T06:56:53.765Z,3.42
2022-07-30T06:59:20.277Z,3.42
2022-07-30T07:01:46.907Z,3.38
2022-07-30T07:04:13.612Z,3.20
2022-07-30T07:06:40.035Z,3.17
2022-07-30T07:09:06.343Z,3.50
2022-07-30T07:11:32.849Z,3.38
2022-07-30T07:14:04.042Z,3.70
2022-07-30T07:16:32.180Z,3.15
2022-07-30T07:18:58.518Z,2.92
2022-07-30T07:21:25.229Z,2.90
2022-07-30T07:23:51.819Z,3.33
2022-07-30T07:26:18.166Z,3.08
2022-07-30T07:28:44.729Z,3.13
2022-07-30T07:31:11.370Z,3.20
2022-07-30T07:33:57.523Z,3.10
2022-07-30T07:36:24.031Z,3.00
2022-07-30T07:38:50.415Z,3.00
2022-07-30T07:41:16.810Z,3.20
2022-07-30T07:43:43.260Z,3.20
2022-07-30T07:46:09.723Z,3.10
2022-07-30T07:48:36.532Z,2.90
2022-07-30T07:51:03.010Z,3.00
2022-07-30T07:53:36.355Z,3.30
2022-07-30T07:56:03.047Z,2.90
2022-07-30T07:58:31.053Z,2.95
2022-07-30T08:00:58.150Z,2.88
2022-07-30T08:03:24.546Z,3.13
2022-07-30T08:05:58.243Z,3.00
2022-07-30T08:08:32.538Z,3.38
2022-07-30T08:10:59.257Z,3.25
2022-07-30T08:13:52.165Z,3.20
2022-07-30T08:16:12.608Z,2.90
2022-07-30T08:18:39.117Z,3.13
2022-07-30T08:21:05.499Z,2.88
2022-07-30T08:23:31.875Z,2.85
2022-07-30T08:25:58.447Z,3.10
2022-07-30T08:28:35.884Z,2.95
2022-07-30T08:31:03.084Z,3.15
2022-07-30T08:33:39.273Z,3.10
2022-07-30T08:36:09.674Z,3.03
2022-07-30T08:38:36.627Z,2.80
2022-07-30T08:41:02.999Z,2.97
2022-07-30T08:43:29.554Z,3.08
2022-07-30T08:45:56.828Z,2.85
2022-07-30T08:48:23.207Z,2.90
2022-07-30T08:50:49.701Z,3.00
2022-07-30T08:53:16.263Z,3.05
2022-07-30T08:55:46.267Z,2.90
2022-07-30T08:58:12.595Z,3.15
2022-07-30T09:00:44.770Z,3.03
2022-07-30T09:03:11.205Z,2.95
2022-07-30T09:05:37.834Z,3.55
2022-07-30T09:08:08.510Z,3.47
2022-07-30T09:10:35.289Z,3.45
2022-07-30T09:13:01.710Z,3.17
2022-07-30T09:15:28.103Z,3.53
2022-07-30T09:17:54.557Z,3.33
2022-07-30T09:20:21.058Z,3.28
2022-07-30T09:22:47.792Z,3.20
2022-07-30T09:25:14.200Z,3.17
2022-07-30T09:27:40.550Z,3.60
2022-07-30T09:30:06.890Z,3.67
2022-07-30T09:32:33.277Z,3.25
2022-07-30T09:34:59.633Z,3.00
2022-07-30T09:37:26.140Z,3.03
2022-07-30T09:39:56.342Z,3.33
2022-07-30T09:42:26.024Z,3.47
2022-07-30T09:44:52.464Z,3.45
2022-07-30T09:47:18.745Z,3.17
2022-07-30T09:52:31.569Z,2.97
2022-07-30T09:54:58.604Z,2.70
2022-07-30T09:57:27.641Z,3.38
2022-07-30T09:59:54.411Z,3.20
2022-07-30T10:02:21.001Z,3.25
2022-07-30T10:04:48.083Z,3.35
2022-07-30T10:07:14.807Z,3.58
2022-07-30T10:10:01.959Z,3.55
2022-07-30T10:12:32.811Z,3.45
2022-07-30T10:14:59.377Z,3.33
2022-07-30T10:17:25.987Z,3.22
2022-07-30T10:19:52.462Z,3.33
2022-07-30T10:22:18.790Z,3.33
2022-07-30T10:24:45.132Z,3.33
2022-07-30T10:27:11.549Z,3.08
2022-07-30T10:29:39.273Z,3.40
2022-07-30T10:34:36.276Z,3.40
2022-07-30T10:37:08.906Z,3.22
2022-07-30T10:39:35.382Z,3.35
2022-07-30T10:42:01.901Z,3.47
2022-07-30T10:44:28.410Z,3.20
2022-07-30T10:46:54.989Z,3.30
2022-07-30T10:49:23.950Z,3.33
2022-07-30T10:51:50.663Z,3.22
2022-07-30T10:54:17.178Z,3.20
2022-07-30T10:56:45.332Z,3.30
2022-07-30T10:59:18.863Z,3.40
2022-07-30T11:01:51.689Z,3.38
2022-07-30T11:04:20.293Z,3.80
2022-07-30T11:06:46.964Z,3.55
2022-07-30T11:09:13.963Z,3.55
2022-07-30T11:12:02.351Z,3.30
2022-07-30T11:14:26.979Z,3.30
2022-07-30T11:16:53.505Z,3.45
2022-07-30T11:19:56.033Z,3.47
2022-07-30T11:22:06.221Z,3.28
2022-07-30T11:24:32.619Z,3.40
2022-07-30T11:26:59.102Z,3.53
2022-07-30T11:29:33.169Z,3.35
2022-07-30T11:32:07.712Z,3.50
2022-07-30T11:34:38.379Z,3.08
2022-07-30T11:37:18.312Z,3.28
2022-07-30T11:39:48.594Z,3.10
2022-07-30T11:42:20.084Z,3.28
2022-07-30T11:44:46.511Z,3.20
2022-07-30T11:47:16.037Z,3.38
2022-07-30T11:49:42.513Z,3.47
2022-07-30T11:52:09.036Z,3.17
2022-07-30T11:54:35.418Z,3.20
2022-07-30T11:57:04.612Z,3.30
2022-07-30T11:59:34.122Z,3.00
2022-07-30T12:02:00.861Z,3.05
2022-07-30T12:04:36.286Z,3.22
2022-07-30T12:07:03.084Z,3.10
2022-07-30T12:09:29.619Z,3.25
2022-07-30T12:11:56.282Z,3.35
2022-07-30T12:14:22.754Z,3.60
2022-07-30T12:16:49.118Z,3.42
2022-07-30T12:19:15.553Z,3.40
2022-07-30T12:21:42.189Z,2.90
2022-07-30T12:24:08.607Z,3.30
2022-07-30T12:26:40.558Z,3.58
2022-07-30T12:29:06.902Z,3.30
2022-07-30T12:31:33.620Z,3.30
2022-07-30T12:34:00.016Z,3.40
2022-07-30T12:36:26.445Z,3.05
2022-07-30T12:38:52.752Z,3.05
2022-07-30T12:41:19.118Z,2.92
2022-07-30T12:43:45.590Z,3.30
2022-07-30T12:46:15.024Z,3.40
2022-07-30T12:48:42.303Z,3.13
2022-07-30T12:51:09.803Z,3.13
2022-07-30T12:53:36.203Z,3.53
2022-07-30T12:56:02.575Z,3.47
2022-07-30T12:58:28.963Z,3.28
2022-07-30T13:00:55.466Z,3.42
2022-07-30T13:03:22.279Z,3.45
2022-07-30T13:05:48.862Z,3.60
2022-07-30T13:08:15.242Z,3.30
2022-07-30T13:10:41.921Z,3.35
2022-07-30T13:13:08.277Z,3.88
2022-07-30T13:15:34.918Z,3.17
2022-07-30T13:18:02.983Z,3.13
2022-07-30T13:20:29.304Z,3.30
2022-07-30T13:23:01.503Z,3.40
2022-07-30T13:25:38.946Z,3.08
2022-07-30T13:28:07.106Z,2.97
2022-07-30T13:30:33.606Z,3.58
2022-07-30T13:33:00.957Z,3.50
2022-07-30T13:35:27.298Z,3.30
2022-07-30T13:37:53.669Z,3.50
2022-07-30T13:40:20.111Z,3.30
2022-07-30T13:42:47.036Z,3.10
2022-07-30T13:45:13.446Z,3.60
2022-07-30T13:47:39.921Z,3.53
2022-07-30T13:50:06.309Z,3.42
2022-07-30T13:52:32.666Z,3.25
2022-07-30T13:54:59.069Z,3.30
2022-07-30T13:57:27.738Z,2.97
2022-07-30T13:59:54.189Z,2.97
2022-07-30T14:02:20.721Z,3.30
2022-07-30T14:04:47.170Z,3.17
2022-07-30T14:07:14.573Z,3.10
2022-07-30T14:09:45.928Z,3.50
2022-07-30T14:12:16.336Z,3.30
2022-07-30T14:14:42.715Z,3.03
2022-07-30T14:17:09.187Z,3.38
2022-07-30T14:19:35.497Z,3.47
2022-07-30T14:22:01.863Z,3.30
2022-07-30T14:24:28.127Z,3.30
2022-07-30T14:26:58.123Z,3.78
2022-07-30T14:29:24.917Z,3.40
2022-07-30T14:31:51.323Z,3.55
2022-07-30T14:34:17.791Z,3.50
2022-07-30T14:36:44.137Z,3.67
2022-07-30T14:39:10.490Z,3.63
2022-07-30T14:41:37.119Z,3.38
2022-07-30T14:44:03.497Z,3.38
2022-07-30T14:46:29.882Z,3.63
2022-07-30T14:48:56.443Z,3.75
2022-07-30T14:51:26.645Z,3.78
2022-07-30T14:53:53.525Z,3.83
2022-07-30T14:56:19.837Z,3.72
2022-07-30T14:58:46.290Z,3.75
2022-07-30T15:01:15.669Z,3.75
2022-07-30T15:03:43.159Z,3.60
2022-07-30T15:06:09.899Z,3.80
2022-07-30T15:08:36.415Z,4.15
2022-07-30T15:11:02.783Z,3.30
2022-07-30T15:13:32.502Z,3.55
2022-07-30T15:15:58.929Z,3.67
2022-07-30T15:18:25.374Z,3.70
2022-07-30T15:20:51.890Z,3.60
2022-07-30T15:23:18.355Z,3.85
2022-07-30T15:25:44.681Z,4.55
2022-07-30T15:28:11.536Z,4.18
2022-07-30T15:30:37.917Z,3.95
2022-07-30T15:33:04.335Z,3.78
2022-07-30T15:35:30.695Z,3.75
2022-07-30T15:37:58.374Z,4.13
2022-07-30T15:40:24.778Z,4.05
2022-07-30T15:42:51.160Z,3.53
2022-07-30T15:45:18.421Z,4.10
2022-07-30T15:47:45.231Z,3.78
2022-07-30T15:50:11.621Z,3.70
2022-07-30T15:52:37.993Z,3.85
2022-07-30T15:55:04.315Z,3.88
2022-07-30T15:57:30.730Z,3.60
2022-07-30T15:59:57.157Z,4.00
2022-07-30T16:02:23.902Z,3.90
2022-07-30T16:04:50.433Z,3.92
2022-07-30T16:07:19.266Z,4.40
2022-07-30T16:09:45.611Z,4.13
2022-07-30T16:12:12.201Z,3.55
2022-07-30T16:14:38.625Z,4.25
2022-07-30T16:17:05.146Z,4.47
2022-07-30T16:19:31.524Z,4.30
2022-07-30T16:21:57.823Z,4.10
2022-07-30T16:24:24.157Z,4.13
2022-07-30T16:26:50.583Z,4.38
2022-07-30T16:29:16.921Z,4.13
2022-07-30T16:31:43.236Z,4.28
2022-07-30T16:34:09.767Z,4.10
2022-07-30T16:36:36.140Z,4.40
2022-07-30T16:39:02.741Z,4.22
2022-07-30T16:41:29.017Z,4.45
2022-07-30T16:43:55.359Z,3.95
2022-07-30T16:46:21.851Z,4.40
2022-07-30T16:48:54.214Z,4.25
2022-07-30T16:51:20.614Z,4.18
2022-07-30T16:53:47.007Z,4.25
2022-07-30T16:56:13.317Z,4.43
2022-07-30T16:58:40.335Z,4.07
2022-07-30T17:01:06.729Z,4.05
2022-07-30T17:03:33.209Z,3.88
2022-07-30T17:05:59.649Z,4.35
2022-07-30T17:08:26.015Z,3.70
2022-07-30T17:10:53.992Z,4.15
2022-07-30T17:13:20.531Z,4.50
2022-07-30T17:15:47.082Z,3.92
2022-07-30T17:18:13.435Z,3.58
2022-07-30T17:20:39.943Z,3.92
2022-07-30T17:23:06.313Z,3.90
2022-07-30T17:25:32.629Z,3.50
2022-07-30T17:27:59.125Z,4.00
2022-07-30T17:30:25.541Z,4.25
2022-07-30T17:32:51.932Z,4.10
2022-07-30T17:35:18.310Z,3.80
2022-07-30T17:37:44.699Z,4.13
2022-07-30T17:40:30.399Z,4.28
2022-07-30T17:42:57.329Z,3.90
2022-07-30T17:45:23.710Z,4.00
2022-07-30T17:47:55.981Z,4.35
2022-07-30T17:50:22.583Z,3.47
2022-07-30T17:52:48.938Z,3.97
2022-07-30T17:55:15.232Z,3.80
2022-07-30T17:57:41.651Z,4.25
2022-07-30T18:00:07.946Z,3.80
2022-07-30T18:02:34.353Z,3.70
2022-07-30T18:05:00.808Z,4.07
2022-07-30T18:07:27.169Z,3.80
2022-07-30T18:09:53.527Z,3.60
2022-07-30T18:12:19.881Z,3.60
2022-07-30T18:14:46.266Z,3.70
2022-07-30T18:17:14.651Z,4.18
2022-07-30T18:19:41.097Z,3.72
2022-07-30T18:22:07.668Z,3.72
2022-07-30T18:24:34.847Z,3.53
2022-07-30T18:27:06.931Z,4.32
2022-07-30T18:29:33.269Z,3.70
2022-07-30T18:31:59.773Z,3.50
2022-07-30T18:34:26.634Z,3.10
2022-07-30T18:36:52.934Z,3.47
2022-07-30T18:39:19.291Z,3.28
2022-07-30T18:41:45.623Z,3.60
2022-07-30T18:44:12.060Z,3.67
2022-07-30T18:46:38.458Z,3.45
2022-07-30T18:49:26.640Z,3.33
2022-07-30T18:51:51.564Z,2.90
2022-07-30T18:54:18.655Z,3.70
2022-07-30T18:56:45.208Z,3.60
2022-07-30T18:59:11.700Z,3.30
2022-07-30T19:01:38.149Z,3.65
2022-07-30T19:04:05.552Z,3.53
2022-07-30T19:06:34.317Z,3.50
2022-07-30T19:09:00.702Z,3.55
2022-07-30T19:11:27.148Z,3.80
2022-07-30T19:13:53.493Z,3.63
2022-07-30T19:16:19.835Z,3.38
2022-07-30T19:18:46.178Z,3.10
2022-07-30T19:21:14.157Z,3.00
2022-07-30T19:23:44.644Z,3.70
2022-07-30T19:26:12.091Z,3.15
2022-07-30T19:28:38.473Z,3.17
2022-07-30T19:31:04.895Z,3.17
2022-07-30T19:33:31.207Z,3.20
2022-07-30T19:35:57.545Z,3.30
2022-07-30T19:38:24.286Z,3.67
2022-07-30T19:40:51.383Z,3.75
2022-07-30T19:43:17.705Z,3.08
2022-07-30T19:45:50.199Z,3.38
2022-07-30T19:48:29.455Z,3.58
2022-07-30T19:50:57.775Z,3.10
2022-07-30T19:53:25.008Z,3.50
2022-07-30T19:55:51.767Z,3.50
2022-07-30T19:58:19.782Z,3.65
2022-07-30T20:00:49.268Z,3.63
2022-07-30T20:03:16.228Z,3.55
2022-07-30T20:05:57.015Z,3.17
2022-07-30T20:08:25.721Z,3.20
2022-07-30T20:10:52.017Z,3.38
2022-07-30T20:13:18.587Z,3.25
2022-07-30T20:15:45.889Z,3.33
2022-07-30T20:18:12.720Z,3.22
2022-07-30T20:20:41.134Z,3.50
2022-07-30T20:23:08.012Z,3.00
2022-07-30T20:25:37.326Z,3.17
2022-07-30T20:28:04.171Z,3.22
2022-07-30T20:30:30.967Z,3.13
2022-07-30T20:32:57.485Z,3.47
2022-07-30T20:35:24.815Z,3.20
2022-07-30T20:37:54.799Z,3.17
2022-07-30T20:40:22.059Z,3.45
2022-07-30T20:42:49.460Z,3.45
2022-07-30T20:45:15.778Z,3.30
2022-07-30T20:47:42.326Z,3.28
2022-07-30T20:50:14.228Z,2.90
2022-07-30T20:52:40.876Z,3.40
2022-07-30T20:55:14.348Z,3.40
2022-07-30T20:57:57.122Z,2.97
2022-07-30T21:00:28.905Z,3.40
2022-07-30T21:02:55.270Z,3.08
2022-07-30T21:05:21.657Z,2.85
2022-07-30T21:07:48.307Z,3.28
2022-07-30T21:10:19.395Z,3.03
2022-07-30T21:12:52.931Z,2.83
2022-07-30T21:15:24.027Z,3.13
2022-07-30T21:17:50.950Z,2.85
2022-07-30T21:20:17.320Z,3.13
2022-07-30T21:22:54.303Z,3.20
2022-07-30T21:25:20.642Z,3.50
2022-07-30T21:27:50.081Z,3.30
2022-07-30T21:30:16.786Z,2.92
2022-07-30T21:32:43.409Z,3.45
2022-07-30T21:35:09.758Z,3.03
2022-07-30T21:37:38.230Z,2.90
2022-07-30T21:40:09.367Z,3.05
2022-07-30T21:42:36.403Z,2.88
2022-07-30T21:45:15.146Z,3.25
2022-07-30T21:47:48.049Z,3.40
2022-07-30T21:50:14.674Z,3.08
2022-07-30T21:52:42.595Z,3.47
2022-07-30T21:55:08.990Z,3.22
2022-07-30T21:57:42.697Z,3.20
2022-07-30T22:00:11.265Z,3.15
2022-07-30T22:02:38.701Z,3.15
2022-07-30T22:05:19.673Z,2.95
2022-07-30T22:07:48.349Z,3.10
2022-07-30T22:10:15.087Z,2.90
2022-07-30T22:12:48.061Z,3.25
2022-07-30T22:15:15.058Z,2.97
2022-07-30T22:17:58.027Z,3.03
2022-07-30T22:20:27.227Z,2.90
2022-07-30T22:22:53.875Z,3.10
2022-07-30T22:25:21.574Z,3.42
2022-07-30T22:27:56.012Z,3.22
2022-07-30T22:30:23.333Z,3.20
2022-07-30T22:32:49.730Z,3.08
2022-07-30T22:35:16.475Z,3.15
2022-07-30T22:37:42.885Z,2.95
2022-07-30T22:40:12.285Z,3.23
2022-07-30T22:42:49.800Z,2.73
2022-07-30T22:45:16.538Z,3.10
2022-07-30T22:48:09.923Z,3.15
2022-07-30T22:50:36.745Z,3.45
2022-07-30T22:53:56.659Z,3.15
2022-07-30T22:55:53.249Z,3.22
2022-07-30T22:58:22.057Z,3.10
2022-07-30T23:00:53.001Z,2.97
2022-07-30T23:03:19.614Z,3.42
2022-07-30T23:05:55.306Z,2.90
2022-07-30T23:08:30.226Z,3.08
2022-07-30T23:10:57.422Z,2.83
2022-07-30T23:13:23.700Z,2.97
2022-07-30T23:15:50.043Z,3.40
2022-07-30T23:18:16.378Z,3.45
2022-07-30T23:20:42.694Z,3.28
2022-07-30T23:23:09.228Z,3.33
2022-07-30T23:25:38.880Z,3.20
2022-07-30T23:28:05.455Z,2.97
2022-07-30T23:30:34.178Z,3.28
2022-07-30T23:33:00.909Z,3.10
2022-07-30T23:35:27.357Z,3.00
2022-07-30T23:37:53.751Z,2.97
2022-07-30T23:40:20.167Z,3.08
2022-07-30T23:42:46.540Z,3.20
2022-07-30T23:45:12.926Z,2.95
2022-07-30T23:48:00.800Z,3.05
2022-07-30T23:50:25.577Z,3.38
2022-07-30T23:52:52.014Z,2.97
2022-07-30T23:55:18.445Z,3.05
2022-07-30T23:57:44.957Z,2.78
